Time;durP1;ratioP1;P1;durP2;ratioP2;P2;SDS_P1;SDS_P2;PMS_P1;PMS_P2;Temp;Humidity;BMP_temperature;BMP_pressure;BME280_temperature;BME280_humidity;BME280_pressure;Samples;Min_cycle;Max_cycle;Signal;HPM_P1;HPM_P2
2023/04/18 00:02:21;;;;;;;18.63;15.37;;;8.90;99.90;;;;;;4955757;28;20436;-69
2023/04/18 00:04:49;;;;;;;20.87;16.23;;;8.90;99.90;;;;;;4953864;29;20197;-69
2023/04/18 00:07:16;;;;;;;18.63;16.60;;;8.90;99.90;;;;;;4955753;29;20566;-67
2023/04/18 00:09:42;;;;;;;18.63;15.23;;;9.00;99.90;;;;;;4954649;29;21020;-69
2023/04/18 00:12:08;;;;;;;19.33;15.30;;;9.00;99.90;;;;;;4954241;28;20456;-68
2023/04/18 00:14:36;;;;;;;18.40;15.37;;;8.90;99.90;;;;;;4948085;29;20973;-69
2023/04/18 00:17:08;;;;;;;17.00;15.20;;;8.90;99.90;;;;;;4955990;29;20444;-68
2023/04/18 00:19:34;;;;;;;17.67;15.73;;;9.00;99.90;;;;;;4953625;29;20436;-69
2023/04/18 00:21:59;;;;;;;17.07;15.23;;;8.90;99.90;;;;;;4956045;29;20780;-69
2023/04/18 00:24:25;;;;;;;21.97;17.40;;;8.90;99.90;;;;;;4953496;28;20444;-69
2023/04/18 00:26:50;;;;;;;19.00;17.10;;;8.90;99.90;;;;;;4956456;28;20238;-68
2023/04/18 00:29:16;;;;;;;17.83;16.00;;;8.80;99.90;;;;;;4955856;28;20601;-70
2023/04/18 00:31:42;;;;;;;19.63;16.40;;;8.90;99.90;;;;;;4954861;29;20310;-69
2023/04/18 00:34:07;;;;;;;19.90;16.03;;;8.80;99.90;;;;;;4951532;29;20197;-69
2023/04/18 00:36:33;;;;;;;17.93;16.03;;;8.90;99.90;;;;;;4954879;29;20580;-69
2023/04/18 00:38:58;;;;;;;17.73;15.00;;;8.90;99.90;;;;;;4953360;29;20185;-68
2023/04/18 00:41:26;;;;;;;17.70;15.60;;;8.90;99.90;;;;;;4953362;29;20189;-69
2023/04/18 00:43:53;;;;;;;19.80;16.13;;;8.80;99.90;;;;;;4953551;29;20193;-69
2023/04/18 00:46:19;;;;;;;21.90;18.23;;;8.80;99.90;;;;;;4953179;28;20488;-70
2023/04/18 00:48:45;;;;;;;18.87;16.90;;;8.80;99.90;;;;;;4953835;28;20459;-69
2023/04/18 00:51:11;;;;;;;17.67;15.90;;;8.80;99.90;;;;;;4958687;28;20205;-68
2023/04/18 00:53:36;;;;;;;19.27;17.23;;;8.80;99.90;;;;;;4952361;28;20440;-70
2023/04/18 00:56:03;;;;;;;18.93;17.00;;;8.80;99.90;;;;;;4953597;29;20472;-70
2023/04/18 00:58:29;;;;;;;18.10;16.20;;;8.80;99.90;;;;;;4950093;29;20203;-70
2023/04/18 01:00:54;;;;;;;19.67;16.67;;;8.80;99.90;;;;;;4952521;29;20452;-70
2023/04/18 01:03:21;;;;;;;18.00;16.07;;;8.70;99.90;;;;;;4952529;29;20275;-69
2023/04/18 01:05:47;;;;;;;17.80;15.90;;;8.70;99.90;;;;;;4952486;29;20287;-70
2023/04/18 01:08:13;;;;;;;17.43;14.87;;;8.80;99.90;;;;;;4953015;29;20542;-67
2023/04/18 01:10:38;;;;;;;17.17;15.00;;;8.80;99.90;;;;;;4955021;29;20200;-69
2023/04/18 01:13:17;;;;;;;18.13;16.10;;;8.90;99.90;;;;;;4949632;29;20456;-69
2023/04/18 01:15:47;;;;;;;17.03;15.23;;;8.80;99.90;;;;;;4950389;29;20646;-68
2023/04/18 01:18:16;;;;;;;19.63;16.57;;;8.80;99.90;;;;;;4952738;29;20942;-69
2023/04/18 01:20:47;;;;;;;17.37;14.80;;;8.90;99.90;;;;;;4954061;29;20440;-70
2023/04/18 01:23:14;;;;;;;18.70;16.90;;;8.80;99.90;;;;;;4953773;29;20429;-70
2023/04/18 01:25:40;;;;;;;18.23;16.33;;;8.80;99.90;;;;;;4952809;29;20460;-69
2023/04/18 01:28:06;;;;;;;17.50;15.60;;;8.80;99.90;;;;;;4952693;29;20452;-68
2023/04/18 01:30:34;;;;;;;17.70;15.80;;;8.80;99.90;;;;;;4952685;29;20468;-69
2023/04/18 01:33:01;;;;;;;18.23;15.80;;;8.80;99.90;;;;;;4953059;29;20268;-68
2023/04/18 01:35:27;;;;;;;17.07;15.27;;;8.80;99.90;;;;;;4950397;28;20472;-69
2023/04/18 01:37:53;;;;;;;15.73;14.17;;;8.80;99.90;;;;;;4950760;29;20961;-69
2023/04/18 01:40:18;;;;;;;17.70;15.90;;;8.80;99.90;;;;;;4952889;28;20188;-70
2023/04/18 01:42:44;;;;;;;16.97;15.13;;;8.70;99.90;;;;;;4952558;29;20240;-70
2023/04/18 01:45:10;;;;;;;18.17;14.80;;;8.70;99.90;;;;;;4952545;29;20825;-69
2023/04/18 01:47:36;;;;;;;18.57;16.30;;;8.80;99.90;;;;;;4950206;29;21941;-70
2023/04/18 01:50:02;;;;;;;16.47;14.70;;;8.80;99.90;;;;;;4948853;28;20452;-68
2023/04/18 01:52:28;;;;;;;17.77;15.87;;;8.80;99.90;;;;;;4953207;28;20654;-68
2023/04/18 01:54:53;;;;;;;16.43;14.50;;;8.80;99.90;;;;;;4950129;28;20555;-69
2023/04/18 01:57:19;;;;;;;16.27;14.50;;;8.80;99.90;;;;;;4951922;29;20299;-70
2023/04/18 01:59:44;;;;;;;16.97;15.17;;;8.80;99.90;;;;;;4952439;29;20192;-70
2023/04/18 02:02:10;;;;;;;17.60;15.40;;;8.80;99.90;;;;;;4952832;29;20208;-69
2023/04/18 02:04:35;;;;;;;15.80;13.87;;;8.80;99.90;;;;;;4953402;28;20621;-70
2023/04/18 02:07:01;;;;;;;18.20;15.37;;;8.70;99.90;;;;;;4951720;29;20197;-68
2023/04/18 02:09:26;;;;;;;17.03;14.47;;;8.70;99.90;;;;;;4953021;29;20181;-69
2023/04/18 02:11:55;;;;;;;16.37;14.77;;;8.60;99.90;;;;;;4953106;29;20192;-69
2023/04/18 02:14:20;;;;;;;18.20;14.63;;;8.60;99.90;;;;;;4950762;28;20189;-67
2023/04/18 02:16:46;;;;;;;17.23;13.40;;;8.60;99.90;;;;;;4951288;29;20527;-68
2023/04/18 02:19:12;;;;;;;18.40;16.47;;;8.60;99.90;;;;;;4951263;29;20853;-69
2023/04/18 02:21:37;;;;;;;17.37;14.93;;;8.60;99.90;;;;;;4951618;29;20271;-70
2023/04/18 02:24:03;;;;;;;17.17;15.27;;;8.60;99.90;;;;;;4952223;29;20177;-69
2023/04/18 02:26:28;;;;;;;16.00;14.00;;;8.60;99.90;;;;;;4952807;29;20203;-69
2023/04/18 02:28:54;;;;;;;15.37;13.43;;;8.60;99.90;;;;;;4951128;29;20193;-69
2023/04/18 02:31:20;;;;;;;17.53;14.67;;;8.50;99.90;;;;;;4950736;29;20220;-70
2023/04/18 02:33:47;;;;;;;17.50;15.60;;;8.50;99.90;;;;;;4949128;29;20197;-70
2023/04/18 02:36:13;;;;;;;18.20;14.10;;;8.60;99.90;;;;;;4947579;28;20223;-69
2023/04/18 02:38:39;;;;;;;16.80;14.00;;;8.50;99.90;;;;;;4951712;29;20452;-70
2023/04/18 02:41:04;;;;;;;17.47;14.87;;;8.50;99.90;;;;;;4953350;29;20185;-69
2023/04/18 02:43:30;;;;;;;18.47;14.97;;;8.50;99.90;;;;;;4950805;29;20643;-69
2023/04/18 02:45:56;;;;;;;18.83;14.90;;;8.50;99.90;;;;;;4951687;29;20220;-69
2023/04/18 02:48:25;;;;;;;17.00;14.07;;;8.40;99.90;;;;;;4949435;29;20455;-69
2023/04/18 02:50:50;;;;;;;18.37;14.70;;;8.40;99.90;;;;;;4953797;28;20685;-70
2023/04/18 02:53:16;;;;;;;17.33;15.43;;;8.40;99.90;;;;;;4954796;28;20448;-68
2023/04/18 02:55:41;;;;;;;17.50;13.67;;;8.40;99.90;;;;;;4934412;29;20236;-68
2023/04/18 02:58:07;;;;;;;18.80;14.93;;;8.30;99.90;;;;;;4946823;29;20223;-69
2023/04/18 03:00:33;;;;;;;14.87;13.37;;;8.30;99.90;;;;;;4947522;29;20205;-70
2023/04/18 03:02:59;;;;;;;16.00;14.33;;;8.30;99.90;;;;;;4951291;29;20263;-70
2023/04/18 03:05:25;;;;;;;16.07;14.37;;;8.30;99.90;;;;;;4952316;29;20548;-69
2023/04/18 03:07:50;;;;;;;17.20;14.50;;;8.20;99.90;;;;;;4952573;29;20193;-69
2023/04/18 03:10:16;;;;;;;18.07;15.03;;;8.20;99.90;;;;;;4949673;29;20223;-69
2023/04/18 03:12:41;;;;;;;18.50;14.80;;;8.20;99.90;;;;;;4952167;29;20189;-69
2023/04/18 03:15:07;;;;;;;19.40;15.67;;;8.30;99.90;;;;;;4956521;28;20654;-68
2023/04/18 03:17:33;;;;;;;16.80;14.27;;;8.30;99.90;;;;;;4954308;28;20266;-70
2023/04/18 03:19:58;;;;;;;18.43;14.80;;;8.30;99.90;;;;;;4950482;29;20519;-69
2023/04/18 03:22:24;;;;;;;18.50;14.87;;;8.30;99.90;;;;;;4937777;29;20224;-69
2023/04/18 03:24:49;;;;;;;17.53;14.83;;;8.40;99.90;;;;;;4953056;29;20713;-70
2023/04/18 03:27:15;;;;;;;16.77;14.50;;;8.30;99.90;;;;;;4952132;29;20196;-69
2023/04/18 03:29:40;;;;;;;16.53;14.83;;;8.30;99.90;;;;;;4951812;28;20273;-70
2023/04/18 03:32:06;;;;;;;20.27;14.57;;;8.40;99.90;;;;;;4952381;29;20213;-69
2023/04/18 03:34:31;;;;;;;17.20;13.37;;;8.40;99.90;;;;;;4950991;29;20229;-68
2023/04/18 03:36:57;;;;;;;18.53;16.13;;;8.40;99.90;;;;;;4949675;29;20219;-68
2023/04/18 03:39:22;;;;;;;17.93;15.30;;;8.30;99.90;;;;;;4950043;29;20196;-69
2023/04/18 03:41:48;;;;;;;16.67;14.93;;;8.30;99.90;;;;;;4950626;29;20543;-69
2023/04/18 03:44:14;;;;;;;18.20;15.10;;;8.30;99.90;;;;;;4952603;28;20177;-69
2023/04/18 03:46:40;;;;;;;16.50;14.80;;;8.20;99.90;;;;;;4953781;29;20583;-68
2023/04/18 03:49:05;;;;;;;15.77;14.07;;;8.20;99.90;;;;;;4948607;29;20193;-68
2023/04/18 03:51:33;;;;;;;19.83;15.30;;;8.30;99.90;;;;;;4951225;29;20181;-68
2023/04/18 03:53:58;;;;;;;16.83;15.07;;;8.20;99.90;;;;;;4952024;29;20185;-68
2023/04/18 03:56:24;;;;;;;16.10;12.87;;;8.20;99.90;;;;;;4943919;29;20471;-68
2023/04/18 03:58:50;;;;;;;19.23;14.97;;;8.30;99.90;;;;;;4946013;29;20204;-68
2023/04/18 04:01:16;;;;;;;17.80;15.33;;;8.20;99.90;;;;;;4951320;29;20519;-68
2023/04/18 04:03:41;;;;;;;17.47;15.13;;;8.20;99.90;;;;;;4952567;28;20220;-68
2023/04/18 04:06:07;;;;;;;15.73;14.10;;;8.20;99.90;;;;;;4955671;28;20299;-69
2023/04/18 04:08:32;;;;;;;16.50;14.23;;;8.20;99.90;;;;;;4955840;29;20180;-68
2023/04/18 04:10:58;;;;;;;19.93;16.00;;;8.20;99.90;;;;;;4955939;29;20661;-68
2023/04/18 04:13:23;;;;;;;18.53;14.57;;;8.20;99.90;;;;;;4954243;29;20204;-68
2023/04/18 04:15:49;;;;;;;17.73;15.67;;;8.20;99.90;;;;;;4950996;29;20233;-69
2023/04/18 04:18:15;;;;;;;19.07;15.70;;;8.10;99.90;;;;;;4955206;29;20591;-68
2023/04/18 04:20:40;;;;;;;18.80;15.90;;;8.00;99.90;;;;;;4953358;29;20208;-68
2023/04/18 04:23:06;;;;;;;18.53;16.10;;;8.00;99.90;;;;;;4955716;29;20263;-68
2023/04/18 04:25:32;;;;;;;17.43;14.40;;;7.90;99.90;;;;;;4954466;29;20209;-68
2023/04/18 04:28:00;;;;;;;20.10;14.20;;;7.90;99.90;;;;;;4954809;29;20255;-68
2023/04/18 04:30:25;;;;;;;16.13;14.40;;;7.80;99.90;;;;;;4953018;29;20547;-68
2023/04/18 04:32:52;;;;;;;17.53;14.57;;;7.80;99.90;;;;;;4950050;29;21065;-68
2023/04/18 04:35:17;;;;;;;20.00;15.60;;;7.80;99.90;;;;;;4953362;28;20205;-68
2023/04/18 04:37:43;;;;;;;18.83;14.90;;;7.80;99.90;;;;;;4953925;29;20815;-68
2023/04/18 04:40:09;;;;;;;17.33;14.90;;;7.80;99.90;;;;;;4953263;29;20631;-69
2023/04/18 04:42:35;;;;;;;17.07;14.63;;;7.80;99.90;;;;;;4953215;29;20523;-68
2023/04/18 04:45:01;;;;;;;20.03;15.50;;;7.80;99.90;;;;;;4955473;29;20472;-68
2023/04/18 04:47:27;;;;;;;16.27;14.53;;;7.80;99.90;;;;;;4951889;29;20888;-68
2023/04/18 04:49:53;;;;;;;18.47;14.87;;;7.80;99.90;;;;;;4954382;29;20534;-68
2023/04/18 04:52:18;;;;;;;17.53;15.40;;;7.90;99.90;;;;;;4954829;29;20177;-68
2023/04/18 04:54:45;;;;;;;16.57;14.60;;;7.90;99.90;;;;;;4955179;29;20709;-68
2023/04/18 04:57:11;;;;;;;18.80;15.00;;;7.90;99.90;;;;;;4954404;29;20605;-68
2023/04/18 04:59:37;;;;;;;19.20;16.27;;;7.80;99.90;;;;;;4946789;29;20441;-68
2023/04/18 05:02:02;;;;;;;25.40;15.53;;;7.80;99.90;;;;;;4948280;29;20273;-68
2023/04/18 05:04:28;;;;;;;16.10;14.40;;;7.90;99.90;;;;;;4954022;29;20822;-68
2023/04/18 05:06:53;;;;;;;17.83;15.87;;;7.90;99.90;;;;;;4951521;29;20280;-68
2023/04/18 05:09:19;;;;;;;19.60;16.30;;;7.90;99.90;;;;;;4953596;29;20674;-68
2023/04/18 05:11:46;;;;;;;17.40;15.20;;;7.90;99.90;;;;;;4935839;29;20324;-69
2023/04/18 05:14:11;;;;;;;19.63;15.53;;;7.90;99.90;;;;;;4952275;28;20185;-68
2023/04/18 05:16:37;;;;;;;19.60;16.43;;;8.00;99.90;;;;;;4953242;29;20490;-68
2023/04/18 05:19:02;;;;;;;19.27;14.57;;;7.90;99.90;;;;;;4953600;29;20188;-68
2023/04/18 05:21:28;;;;;;;23.00;17.47;;;8.00;99.90;;;;;;4951196;29;20264;-68
2023/04/18 05:23:54;;;;;;;19.47;16.33;;;7.90;99.90;;;;;;4952242;28;20174;-68
2023/04/18 05:26:20;;;;;;;19.23;15.10;;;8.00;99.90;;;;;;4949846;29;20229;-69
2023/04/18 05:28:46;;;;;;;18.93;14.90;;;8.00;99.90;;;;;;4950499;29;20468;-68
2023/04/18 05:31:12;;;;;;;19.07;16.33;;;8.10;99.90;;;;;;4953650;29;20531;-68
2023/04/18 05:33:37;;;;;;;21.43;16.63;;;8.00;99.90;;;;;;4953448;29;20233;-68
2023/04/18 05:36:03;;;;;;;16.50;14.80;;;8.00;99.90;;;;;;4953507;28;20217;-68
2023/04/18 05:38:29;;;;;;;19.00;16.07;;;8.00;99.90;;;;;;4954173;29;20189;-68
2023/04/18 05:40:54;;;;;;;20.03;14.70;;;8.00;99.90;;;;;;4954402;29;20444;-68
2023/04/18 05:43:21;;;;;;;20.27;16.77;;;8.00;99.90;;;;;;4951214;29;20177;-68
2023/04/18 05:45:46;;;;;;;18.90;16.13;;;8.10;99.90;;;;;;4952301;29;20283;-68
2023/04/18 05:48:12;;;;;;;17.47;14.73;;;8.20;99.90;;;;;;4953943;29;20875;-68
2023/04/18 05:50:38;;;;;;;19.93;16.13;;;8.30;99.90;;;;;;4954360;29;20189;-68
2023/04/18 05:53:04;;;;;;;20.40;17.20;;;8.30;99.90;;;;;;4953986;29;20444;-68
2023/04/18 05:55:29;;;;;;;17.70;14.50;;;8.20;99.90;;;;;;4952426;28;20228;-68
2023/04/18 05:57:55;;;;;;;21.13;15.70;;;8.20;99.90;;;;;;4952184;29;20614;-68
2023/04/18 06:00:21;;;;;;;20.47;16.70;;;8.20;99.90;;;;;;4953164;29;20860;-69
2023/04/18 06:02:46;;;;;;;18.70;16.47;;;8.20;99.90;;;;;;4953046;29;20662;-68
2023/04/18 06:05:12;;;;;;;20.87;17.60;;;8.20;99.90;;;;;;4951000;29;20236;-68
2023/04/18 06:07:37;;;;;;;23.53;16.93;;;8.20;99.90;;;;;;4949469;29;20567;-68
2023/04/18 06:10:07;;;;;;;19.30;16.83;;;8.30;99.90;;;;;;4954164;28;20192;-68
2023/04/18 06:12:33;;;;;;;22.87;14.23;;;8.30;99.90;;;;;;4956011;28;20181;-68
2023/04/18 06:14:59;;;;;;;19.00;15.50;;;8.40;99.90;;;;;;4958268;28;20486;-68
2023/04/18 06:17:24;;;;;;;17.90;15.60;;;8.40;99.90;;;;;;4946186;29;20188;-68
2023/04/18 06:19:50;;;;;;;20.00;15.97;;;8.50;99.90;;;;;;4952126;29;20185;-68
2023/04/18 06:22:15;;;;;;;18.10;16.00;;;8.60;99.90;;;;;;4953039;29;20193;-68
2023/04/18 06:24:41;;;;;;;18.30;16.40;;;8.60;99.90;;;;;;4951064;29;20209;-68
2023/04/18 06:27:06;;;;;;;18.13;16.23;;;8.50;99.90;;;;;;4952808;28;20232;-69
2023/04/18 06:29:32;;;;;;;22.27;17.40;;;8.50;99.90;;;;;;4953096;29;20181;-70
2023/04/18 06:31:58;;;;;;;22.10;17.53;;;8.60;99.90;;;;;;4949751;29;20185;-69
2023/04/18 06:34:24;;;;;;;19.90;15.70;;;8.60;99.90;;;;;;4947431;29;20212;-70
2023/04/18 06:36:50;;;;;;;18.07;16.17;;;8.60;99.90;;;;;;4943701;29;20196;-69
2023/04/18 06:39:16;;;;;;;17.50;14.53;;;8.60;99.90;;;;;;4947336;28;20795;-69
2023/04/18 06:41:41;;;;;;;17.77;15.50;;;8.60;99.90;;;;;;4952388;29;20432;-69
2023/04/18 06:44:07;;;;;;;17.00;15.20;;;8.70;99.90;;;;;;4950570;29;20189;-70
2023/04/18 06:46:32;;;;;;;19.30;16.10;;;8.70;99.90;;;;;;4952090;29;20180;-69
2023/04/18 06:48:58;;;;;;;17.70;15.07;;;8.90;99.90;;;;;;4944141;29;20305;-70
2023/04/18 06:51:24;;;;;;;19.90;17.03;;;8.80;99.90;;;;;;4953345;29;20263;-69
2023/04/18 06:53:51;;;;;;;16.47;14.70;;;8.90;99.90;;;;;;4952461;29;20280;-69
2023/04/18 06:56:20;;;;;;;17.97;15.30;;;8.90;99.90;;;;;;4948415;29;20216;-71
2023/04/18 06:58:46;;;;;;;18.13;16.20;;;8.90;99.90;;;;;;4950801;29;20432;-68
2023/04/18 07:01:12;;;;;;;20.20;15.67;;;8.90;99.90;;;;;;4958625;28;21857;-69
2023/04/18 07:03:37;;;;;;;19.10;16.50;;;8.90;99.90;;;;;;4945060;28;20439;-69
2023/04/18 07:06:04;;;;;;;21.97;15.90;;;9.00;99.90;;;;;;4948701;28;20678;-69
2023/04/18 07:08:30;;;;;;;20.77;16.93;;;9.10;99.90;;;;;;4947600;29;20654;-69
2023/04/18 07:10:55;;;;;;;16.27;14.10;;;9.10;99.90;;;;;;4950845;29;20500;-69
2023/04/18 07:13:21;;;;;;;16.80;15.00;;;9.20;99.90;;;;;;4952842;29;20257;-68
2023/04/18 07:15:46;;;;;;;18.27;16.37;;;9.30;99.90;;;;;;4949609;28;20213;-72
2023/04/18 07:18:12;;;;;;;19.77;16.03;;;9.40;99.90;;;;;;4954752;28;20208;-70
2023/04/18 07:20:37;;;;;;;18.90;15.77;;;9.40;99.90;;;;;;4947153;29;20180;-69
2023/04/18 07:23:03;;;;;;;17.40;15.47;;;9.50;99.90;;;;;;4948916;28;20678;-70
2023/04/18 07:25:29;;;;;;;20.53;14.63;;;9.50;99.90;;;;;;4948126;29;20236;-69
2023/04/18 07:27:57;;;;;;;17.90;15.63;;;9.80;99.90;;;;;;4950880;29;20812;-70
2023/04/18 07:30:23;;;;;;;17.90;14.60;;;10.10;99.90;;;;;;4944203;29;20190;-70
2023/04/18 07:32:48;;;;;;;16.53;14.77;;;10.20;99.90;;;;;;4940504;29;20448;-73
2023/04/18 07:35:14;;;;;;;17.10;14.90;;;10.10;99.90;;;;;;4946416;29;20256;-71
2023/04/18 07:37:40;;;;;;;17.57;15.60;;;9.90;99.90;;;;;;4948845;29;20177;-70
2023/04/18 07:40:06;;;;;;;16.43;14.70;;;9.70;99.90;;;;;;4955297;29;20188;-71
2023/04/18 07:42:31;;;;;;;16.30;14.53;;;9.70;99.90;;;;;;4956210;29;20541;-70
2023/04/18 07:44:57;;;;;;;16.33;14.50;;;9.70;99.90;;;;;;4952557;28;20484;-71
2023/04/18 07:47:26;;;;;;;17.07;15.27;;;9.80;99.90;;;;;;4950083;29;20200;-71
2023/04/18 07:49:51;;;;;;;17.63;14.90;;;9.90;99.90;;;;;;4950483;29;20488;-71
2023/04/18 07:52:17;;;;;;;16.73;15.03;;;9.90;99.90;;;;;;4956264;29;20436;-70
2023/04/18 07:54:43;;;;;;;18.83;16.80;;;10.00;99.90;;;;;;4962521;28;20658;-70
2023/04/18 07:57:09;;;;;;;20.60;15.67;;;10.10;99.90;;;;;;4950538;28;20243;-72
2023/04/18 07:59:35;;;;;;;18.53;16.07;;;10.10;99.90;;;;;;4954882;28;20188;-71
2023/04/18 08:02:00;;;;;;;20.83;15.30;;;10.10;99.90;;;;;;4954839;28;20810;-70
2023/04/18 08:04:26;;;;;;;18.33;15.93;;;9.90;99.90;;;;;;4949806;29;20292;-68
2023/04/18 08:06:51;;;;;;;16.70;14.77;;;9.90;99.90;;;;;;4953654;29;20197;-69
2023/04/18 08:09:19;;;;;;;18.70;16.00;;;9.90;99.90;;;;;;4949618;29;20193;-71
2023/04/18 08:11:45;;;;;;;19.70;13.93;;;10.00;99.90;;;;;;4951720;28;20185;-70
2023/04/18 08:14:10;;;;;;;16.30;14.60;;;10.00;99.90;;;;;;4954938;28;20995;-72
2023/04/18 08:16:36;;;;;;;16.70;15.00;;;9.90;99.90;;;;;;4953215;28;20205;-72
2023/04/18 08:19:02;;;;;;;15.20;13.13;;;9.90;99.90;;;;;;4951191;28;20244;-71
2023/04/18 08:21:27;;;;;;;20.70;16.33;;;9.80;99.90;;;;;;4951819;28;20208;-70
2023/04/18 08:23:53;;;;;;;18.23;16.13;;;9.90;99.90;;;;;;4955334;29;20193;-71
2023/04/18 08:26:18;;;;;;;20.23;18.03;;;10.00;99.90;;;;;;4952057;29;20254;-71
2023/04/18 08:28:44;;;;;;;17.60;15.73;;;10.20;99.90;;;;;;4952814;29;20237;-71
2023/04/18 08:31:13;;;;;;;22.13;16.03;;;10.30;99.90;;;;;;4950113;28;20220;-72
2023/04/18 08:33:39;;;;;;;16.63;14.93;;;10.40;99.90;;;;;;4943873;29;20211;-70
2023/04/18 08:36:05;;;;;;;17.37;15.40;;;10.60;99.90;;;;;;4949607;29;20520;-69
2023/04/18 08:38:31;;;;;;;18.40;16.47;;;10.90;99.90;;;;;;4952954;29;20857;-71
2023/04/18 08:40:56;;;;;;;16.17;14.47;;;11.10;99.90;;;;;;4953592;29;20184;-71
2023/04/18 08:43:24;;;;;;;16.67;15.03;;;11.30;99.90;;;;;;4951426;29;20554;-74
2023/04/18 08:45:49;;;;;;;16.70;14.90;;;11.30;99.90;;;;;;4949636;28;20232;-70
2023/04/18 08:48:16;;;;;;;15.97;14.27;;;11.40;99.90;;;;;;4952369;28;20452;-71
2023/04/18 08:50:42;;;;;;;16.97;14.90;;;11.40;99.90;;;;;;4948057;29;20189;-70
2023/04/18 08:53:09;;;;;;;16.33;14.63;;;11.30;99.90;;;;;;4954539;28;20503;-70
2023/04/18 08:55:34;;;;;;;17.03;15.23;;;11.20;99.90;;;;;;4952756;29;20503;-71
2023/04/18 08:58:01;;;;;;;16.90;15.10;;;11.20;99.90;;;;;;4954198;28;20440;-74
2023/04/18 09:00:28;;;;;;;15.20;13.27;;;11.10;99.90;;;;;;4952322;28;20213;-72
2023/04/18 09:02:55;;;;;;;17.93;14.43;;;11.20;99.90;;;;;;4954915;28;20783;-71
2023/04/18 09:05:23;;;;;;;18.60;16.63;;;11.50;99.90;;;;;;4949953;28;20473;-71
2023/04/18 09:07:51;;;;;;;18.53;14.57;;;11.80;99.90;;;;;;4952387;28;20500;-72
2023/04/18 09:10:37;;;;;;;16.83;14.20;;;11.90;99.90;;;;;;4954785;28;20459;-70
2023/04/18 09:13:03;;;;;;;16.03;14.43;;;11.90;99.90;;;;;;4951729;28;20814;-72
2023/04/18 09:15:29;;;;;;;16.10;14.40;;;12.00;99.90;;;;;;4945843;28;20473;-71
2023/04/18 09:18:01;;;;;;;18.03;16.20;;;12.10;99.90;;;;;;4954839;28;20482;-71
2023/04/18 09:20:33;;;;;;;18.40;15.50;;;11.90;99.90;;;;;;4946315;28;20448;-71
2023/04/18 09:23:01;;;;;;;17.37;15.57;;;11.90;99.90;;;;;;4949940;28;20437;-71
2023/04/18 09:25:33;;;;;;;16.40;14.63;;;11.70;99.90;;;;;;4952860;28;20475;-71
2023/04/18 09:28:00;;;;;;;16.00;14.20;;;11.60;99.90;;;;;;4957128;28;20453;-72
2023/04/18 09:30:36;;;;;;;17.70;15.57;;;11.40;99.90;;;;;;4950244;29;20441;-71
2023/04/18 09:33:03;;;;;;;18.53;16.50;;;11.20;99.90;;;;;;4952151;29;20439;-73
2023/04/18 09:35:29;;;;;;;17.80;16.00;;;11.00;99.90;;;;;;4952330;28;20940;-72
2023/04/18 09:37:55;;;;;;;21.57;17.00;;;10.90;99.90;;;;;;4953114;29;20522;-71
2023/04/18 09:40:21;;;;;;;18.70;16.80;;;11.00;99.90;;;;;;4952091;29;20181;-70
2023/04/18 09:42:50;;;;;;;22.43;16.47;;;11.00;99.90;;;;;;4954024;29;20181;-71
2023/04/18 09:45:15;;;;;;;18.23;16.40;;;11.00;99.90;;;;;;4936564;29;20590;-70
2023/04/18 09:47:41;;;;;;;20.00;16.70;;;11.00;99.90;;;;;;4952848;29;21017;-71
2023/04/18 09:50:08;;;;;;;17.57;15.27;;;11.00;99.90;;;;;;4953653;28;20199;-70
2023/04/18 09:52:36;;;;;;;19.17;16.47;;;11.00;99.90;;;;;;4950636;29;20227;-69
2023/04/18 09:55:04;;;;;;;18.53;16.17;;;11.10;99.90;;;;;;4952274;28;20460;-70
2023/04/18 09:57:31;;;;;;;20.67;18.47;;;11.30;99.90;;;;;;4950705;28;20499;-70
2023/04/18 10:00:16;;;;;;;27.60;24.17;;;11.50;99.90;;;;;;4950797;28;20515;-70
2023/04/18 10:02:57;;;;;;;18.30;16.23;;;11.60;99.90;;;;;;4943798;29;20444;-70
2023/04/18 10:05:26;;;;;;;25.23;18.83;;;12.00;99.90;;;;;;4950013;29;21330;-70
2023/04/18 10:07:53;;;;;;;19.70;16.93;;;12.30;99.90;;;;;;4949757;29;20471;-72
2023/04/18 10:10:18;;;;;;;18.57;16.57;;;13.10;99.90;;;;;;4952313;29;20440;-72
2023/04/18 10:12:46;;;;;;;17.43;15.40;;;13.70;99.90;;;;;;4948961;29;20443;-70
2023/04/18 10:15:14;;;;;;;19.20;15.87;;;13.80;99.90;;;;;;4951617;29;20630;-70
2023/04/18 10:17:52;;;;;;;17.93;16.03;;;13.50;99.90;;;;;;4950997;28;20445;-70
2023/04/18 10:20:19;;;;;;;18.00;15.80;;;13.30;99.90;;;;;;4952586;29;20459;-71
2023/04/18 10:22:46;;;;;;;17.30;15.50;;;13.30;99.90;;;;;;4952506;28;20472;-70
2023/04/18 10:25:11;;;;;;;15.73;14.13;;;12.90;99.90;;;;;;4950062;29;20843;-69
2023/04/18 10:27:57;;;;;;;15.93;14.23;;;12.70;99.90;;;;;;4948829;29;20437;-69
2023/04/18 10:30:40;;;;;;;15.50;13.80;;;12.90;99.90;;;;;;4948995;29;20196;-70
2023/04/18 10:33:32;;;;;;;15.33;13.80;;;13.00;99.90;;;;;;4946705;29;20531;-69
2023/04/18 10:36:00;;;;;;;16.60;14.90;;;13.40;99.90;;;;;;4947385;29;20824;-70
2023/04/18 10:38:26;;;;;;;15.73;14.07;;;13.60;99.90;;;;;;4944553;29;20447;-70
2023/04/18 10:40:52;;;;;;;14.97;13.47;;;13.50;99.90;;;;;;4951018;29;20788;-70
2023/04/18 10:43:17;;;;;;;15.73;14.27;;;13.50;99.90;;;;;;4947258;29;20827;-67
2023/04/18 10:45:43;;;;;;;14.87;13.27;;;13.50;99.90;;;;;;4953654;28;20229;-68
2023/04/18 10:48:22;;;;;;;14.53;13.13;;;13.40;99.90;;;;;;4950208;29;20191;-71
2023/04/18 10:51:11;;;;;;;16.30;13.73;;;13.40;99.90;;;;;;4950850;28;21625;-70
2023/04/18 10:53:36;;;;;;;17.50;15.70;;;13.40;99.90;;;;;;4951809;29;20428;-69
2023/04/18 10:56:02;;;;;;;16.00;14.43;;;13.30;99.90;;;;;;4954003;28;20532;-70
2023/04/18 10:58:31;;;;;;;15.83;14.27;;;13.30;99.90;;;;;;4949614;28;20184;-70
2023/04/18 11:00:57;;;;;;;13.33;11.90;;;13.30;99.90;;;;;;4946517;28;20440;-70
2023/04/18 11:03:33;;;;;;;13.63;12.23;;;13.30;99.90;;;;;;4949425;29;20794;-72
2023/04/18 11:06:02;;;;;;;12.80;11.60;;;13.30;99.90;;;;;;4934511;29;20490;-70
2023/04/18 11:08:28;;;;;;;12.40;11.20;;;13.20;99.90;;;;;;4951746;29;20440;-71
2023/04/18 11:10:58;;;;;;;13.13;11.77;;;13.20;99.90;;;;;;4949970;29;20452;-70
2023/04/18 11:13:24;;;;;;;12.47;11.23;;;13.20;99.90;;;;;;4952826;28;20444;-69
2023/04/18 11:15:49;;;;;;;12.83;11.33;;;13.40;99.90;;;;;;4954812;29;20475;-70
2023/04/18 11:18:15;;;;;;;13.23;11.80;;;13.60;99.90;;;;;;4952133;29;20224;-70
2023/04/18 11:20:48;;;;;;;10.47;9.37;;;13.70;99.90;;;;;;4952774;29;20280;-71
2023/04/18 11:23:20;;;;;;;11.93;10.30;;;13.70;99.90;;;;;;4954400;28;20207;-70
2023/04/18 11:25:49;;;;;;;13.07;11.77;;;13.50;99.90;;;;;;4954157;28;20820;-70
2023/04/18 11:28:20;;;;;;;12.93;11.10;;;13.40;99.90;;;;;;4953428;29;20446;-69
2023/04/18 11:30:45;;;;;;;11.00;9.80;;;13.30;99.90;;;;;;4958303;28;20440;-70
2023/04/18 11:33:12;;;;;;;14.53;12.17;;;13.10;99.90;;;;;;4946311;29;20996;-70
2023/04/18 11:35:39;;;;;;;11.47;10.23;;;13.10;99.90;;;;;;4952032;29;20224;-69
2023/04/18 11:38:06;;;;;;;11.30;9.50;;;13.30;99.90;;;;;;4954476;29;20507;-70
2023/04/18 11:40:32;;;;;;;11.60;10.10;;;13.40;99.90;;;;;;4949494;29;20480;-69
2023/04/18 11:43:05;;;;;;;10.37;9.37;;;13.50;99.90;;;;;;4955950;29;20468;-71
2023/04/18 11:45:31;;;;;;;9.43;8.43;;;13.70;99.90;;;;;;4951812;28;20232;-71
2023/04/18 11:47:59;;;;;;;9.67;8.70;;;13.70;99.90;;;;;;4955998;29;20483;-70
2023/04/18 11:50:26;;;;;;;9.17;8.27;;;13.70;99.90;;;;;;4955052;29;20185;-70
2023/04/18 11:52:52;;;;;;;8.97;8.07;;;13.60;99.90;;;;;;4955921;29;20445;-70
2023/04/18 11:55:23;;;;;;;9.70;8.53;;;13.40;99.90;;;;;;4953580;29;20546;-74
2023/04/18 11:57:54;;;;;;;11.23;8.33;;;13.30;99.90;;;;;;4954307;29;20452;-69
2023/04/18 12:00:31;;;;;;;10.00;9.00;;;13.30;99.90;;;;;;4954138;29;20930;-69
2023/04/18 12:02:58;;;;;;;9.83;8.77;;;13.30;99.90;;;;;;4955265;29;20789;-72
2023/04/18 12:05:34;;;;;;;14.23;12.83;;;13.30;99.90;;;;;;4937640;29;20985;-70
2023/04/18 12:08:19;;;;;;;11.23;10.13;;;13.40;99.90;;;;;;4949814;29;20448;-71
2023/04/18 12:10:49;;;;;;;10.17;9.10;;;13.60;99.90;;;;;;4946817;29;20479;-70
2023/04/18 12:13:15;;;;;;;9.73;8.73;;;13.50;99.90;;;;;;4955291;28;20444;-73
2023/04/18 12:15:45;;;;;;;9.60;8.60;;;13.50;99.90;;;;;;4950396;29;20464;-68
2023/04/18 12:18:13;;;;;;;10.60;9.17;;;13.40;99.90;;;;;;4951833;29;20557;-69
2023/04/18 12:20:48;;;;;;;9.20;8.30;;;13.30;99.90;;;;;;4954353;29;20448;-70
2023/04/18 12:23:33;;;;;;;9.33;8.33;;;13.30;99.90;;;;;;4950372;28;20431;-69
2023/04/18 12:26:03;;;;;;;10.80;9.70;;;13.30;99.90;;;;;;4951702;29;20468;-70
2023/04/18 12:28:29;;;;;;;9.80;8.90;;;13.30;99.90;;;;;;4955071;29;20499;-68
2023/04/18 12:30:55;;;;;;;9.57;8.77;;;13.20;99.90;;;;;;4953367;28;20905;-68
2023/04/18 12:33:21;;;;;;;10.17;9.17;;;13.30;99.90;;;;;;4955008;29;20444;-70